KGON/GON METAR and TAF weather

Enter ICAO airport designator
Station Type Date Time Source
KGON METAR 2022/06/30 00:56 UTC NOAA

KGON 300056Z 22008KT 10SM CLR 21/17 A3016 RMK AO2 SLP214 T02060167


Station Type Date Time Source
KGON Decoded METAR 2022/06/30 00:56 UTC NOAA

GROTON/NEW LONDON AIRPORT , CT, United States (KGON) 41-20N 72-03W 3M
Jun 29, 2022 - 08:56 PM EDT / 2022.06.30 0056 UTC
Wind: from the SW (220 degrees) at 9 MPH (8 KT):0
Visibility: 10 mile(s):0
Sky conditions: clear
Temperature: 69.1 F (20.6 C)
Dew Point: 62.1 F (16.7 C)
Relative Humidity: 78%
Pressure (altimeter): 30.16 in. Hg (1021 hPa)
ob: KGON 300056Z 22008KT 10SM CLR 21/17 A3016 RMK AO2 SLP214 T02060167
cycle: 1

Station Type Date Time Source
KGON TAF 2022/06/29 20:34 UTC NOAA

TAF
AMD KGON 291932Z 2920/3018 20008KT P6SM SKC
FM300300 21004KT P6SM BKN070
FM301300 31007KT P6SM FEW060

Example: see airport list